Time;durP1;ratioP1;P1;durP2;ratioP2;P2;SDS_P1;SDS_P2;PMS_P1;PMS_P2;Temp;Humidity;BMP_temperature;BMP_pressure;BME280_temperature;BME280_humidity;BME280_pressure;Samples;Min_cycle;Max_cycle;Signal;HPM_P1;HPM_P2
2022/11/07 00:00:20;;;;;;;19.27;14.20;;;;;;;;;;4899746;29;20099;-79
2022/11/07 00:02:46;;;;;;;14.68;11.32;;;;;;;;;;4899038;29;20052;-79
2022/11/07 00:05:12;;;;;;;13.18;11.07;;;;;;;;;;4915010;29;20044;-81
2022/11/07 00:07:38;;;;;;;16.95;12.40;;;;;;;;;;4899342;29;20036;-80
2022/11/07 00:10:04;;;;;;;26.58;16.08;;;;;;;;;;4915206;29;20039;-80
2022/11/07 00:12:34;;;;;;;26.08;15.98;;;;;;;;;;4914967;29;20068;-80
2022/11/07 00:15:00;;;;;;;20.98;13.82;;;;;;;;;;4899236;29;20036;-80
2022/11/07 00:17:26;;;;;;;23.20;14.38;;;;;;;;;;4916475;29;20500;-79
2022/11/07 00:19:52;;;;;;;23.05;15.30;;;;;;;;;;4914555;29;20047;-79
2022/11/07 00:22:18;;;;;;;21.77;14.20;;;;;;;;;;4915465;29;20375;-78
2022/11/07 00:24:44;;;;;;;25.35;14.07;;;;;;;;;;4917308;29;20040;-79
2022/11/07 00:27:10;;;;;;;16.42;12.00;;;;;;;;;;4916977;29;20416;-79
2022/11/07 00:29:36;;;;;;;14.68;10.95;;;;;;;;;;4915686;29;20047;-80
2022/11/07 00:32:02;;;;;;;18.00;13.00;;;;;;;;;;4915726;29;20044;-80
2022/11/07 00:34:28;;;;;;;19.80;12.90;;;;;;;;;;4914391;29;20123;-79
2022/11/07 00:36:54;;;;;;;20.90;14.65;;;;;;;;;;4914165;29;20610;-77
2022/11/07 00:39:20;;;;;;;27.75;15.27;;;;;;;;;;4914144;29;20032;-78
2022/11/07 00:41:47;;;;;;;30.08;15.75;;;;;;;;;;4914139;29;20457;-78
2022/11/07 00:44:13;;;;;;;30.30;14.13;;;;;;;;;;4898464;29;20495;-78
2022/11/07 00:46:39;;;;;;;25.77;14.93;;;;;;;;;;4914156;29;20127;-77
2022/11/07 00:49:04;;;;;;;28.13;16.05;;;;;;;;;;4915226;29;20063;-78
2022/11/07 00:51:30;;;;;;;26.02;15.70;;;;;;;;;;4915250;29;20800;-77
2022/11/07 00:53:56;;;;;;;21.70;13.95;;;;;;;;;;4897617;29;20107;-77
2022/11/07 00:56:23;;;;;;;21.88;13.95;;;;;;;;;;4915484;29;20036;-77
2022/11/07 00:58:53;;;;;;;18.50;13.35;;;;;;;;;;4914942;29;20039;-75
2022/11/07 01:01:20;;;;;;;23.95;14.48;;;;;;;;;;4915001;29;20043;-77
2022/11/07 01:06:31;;;;;;;28.38;17.23;;;;;;;;;;4915022;29;20127;-77
2022/11/07 01:08:56;;;;;;;23.83;15.57;;;;;;;;;;4913529;29;20035;-78
2022/11/07 01:11:23;;;;;;;25.73;15.38;;;;;;;;;;4915044;29;20040;-75
2022/11/07 01:13:49;;;;;;;28.23;16.77;;;;;;;;;;4913319;29;20131;-79
2022/11/07 01:16:15;;;;;;;24.77;17.42;;;;;;;;;;4897978;29;20155;-78
2022/11/07 01:18:40;;;;;;;27.75;15.38;;;;;;;;;;4913365;29;20032;-78
2022/11/07 01:21:07;;;;;;;33.20;17.35;;;;;;;;;;4913691;29;20095;-78
2022/11/07 01:23:33;;;;;;;27.42;15.65;;;;;;;;;;4914566;29;20139;-79
2022/11/07 01:26:08;;;;;;;26.95;16.13;;;;;;;;;;4913207;29;20135;-79
2022/11/07 01:28:34;;;;;;;33.60;19.60;;;;;;;;;;4914752;29;20088;-77
2022/11/07 01:31:06;;;;;;;26.10;16.05;;;;;;;;;;4914571;29;20036;-79
2022/11/07 01:33:32;;;;;;;27.13;16.15;;;;;;;;;;4914373;29;20698;-78
2022/11/07 01:35:59;;;;;;;25.08;15.88;;;;;;;;;;4897509;29;20130;-78
2022/11/07 01:38:25;;;;;;;31.95;16.48;;;;;;;;;;4913341;29;20453;-79
2022/11/07 01:43:44;;;;;;;24.35;15.77;;;;;;;;;;4913055;29;20523;-80
2022/11/07 01:46:10;;;;;;;28.50;16.13;;;;;;;;;;4914360;29;20039;-80
2022/11/07 01:48:36;;;;;;;29.08;16.88;;;;;;;;;;4914293;29;20032;-79
2022/11/07 01:51:02;;;;;;;28.80;17.40;;;;;;;;;;4912831;29;20060;-79
2022/11/07 01:53:28;;;;;;;24.95;14.32;;;;;;;;;;4913979;29;20032;-77
2022/11/07 01:55:54;;;;;;;25.67;15.55;;;;;;;;;;4912896;29;20044;-78
2022/11/07 01:58:20;;;;;;;35.75;20.80;;;;;;;;;;4914155;29;20123;-79
2022/11/07 02:00:46;;;;;;;26.00;16.35;;;;;;;;;;4912548;29;20420;-78
2022/11/07 02:03:13;;;;;;;32.83;19.33;;;;;;;;;;4914146;29;20135;-78
2022/11/07 02:05:45;;;;;;;29.60;16.77;;;;;;;;;;4912857;29;20036;-79
2022/11/07 02:08:11;;;;;;;30.65;17.02;;;;;;;;;;4912816;29;20040;-79
2022/11/07 02:10:38;;;;;;;26.60;14.73;;;;;;;;;;4912731;29;20040;-79
2022/11/07 02:13:03;;;;;;;30.40;17.25;;;;;;;;;;4912491;29;20092;-79
2022/11/07 02:15:29;;;;;;;50.65;26.88;;;;;;;;;;4912680;29;20028;-78
2022/11/07 02:17:55;;;;;;;36.88;21.23;;;;;;;;;;4896562;29;20540;-78
2022/11/07 02:20:21;;;;;;;37.58;16.98;;;;;;;;;;4912310;29;20036;-78
2022/11/07 02:22:47;;;;;;;36.55;20.00;;;;;;;;;;4912080;29;20052;-79
2022/11/07 02:25:13;;;;;;;38.20;19.83;;;;;;;;;;4913840;29;20031;-78
2022/11/07 02:27:39;;;;;;;47.75;24.33;;;;;;;;;;4912764;29;20527;-79
2022/11/07 02:30:07;;;;;;;42.67;21.48;;;;;;;;;;4912298;29;20040;-79
2022/11/07 02:32:33;;;;;;;37.85;20.33;;;;;;;;;;4927868;29;20043;-79
2022/11/07 02:34:59;;;;;;;38.08;18.13;;;;;;;;;;4912989;29;20508;-78
2022/11/07 02:37:27;;;;;;;41.50;19.42;;;;;;;;;;4912129;29;20044;-78
2022/11/07 02:39:52;;;;;;;35.55;19.15;;;;;;;;;;4913026;29;20539;-78
2022/11/07 02:42:18;;;;;;;26.95;15.73;;;;;;;;;;4912083;29;20036;-78
2022/11/07 02:44:45;;;;;;;32.30;17.92;;;;;;;;;;4913023;29;20520;-78
2022/11/07 02:47:11;;;;;;;44.08;22.10;;;;;;;;;;4912042;29;20063;-78
2022/11/07 02:49:36;;;;;;;26.80;15.05;;;;;;;;;;4913196;29;20508;-78
2022/11/07 02:52:02;;;;;;;38.65;21.35;;;;;;;;;;4913119;29;20040;-79
2022/11/07 02:54:28;;;;;;;26.55;14.45;;;;;;;;;;4911818;29;20533;-79
2022/11/07 02:56:54;;;;;;;38.88;20.27;;;;;;;;;;4911696;29;20487;-77
2022/11/07 02:59:20;;;;;;;39.13;21.55;;;;;;;;;;4913104;29;20627;-77
2022/11/07 03:01:46;;;;;;;30.40;17.48;;;;;;;;;;4909710;29;20044;-80
2022/11/07 03:04:12;;;;;;;11.02;7.72;;;;;;;;;;4913048;29;20055;-80
2022/11/07 03:06:37;;;;;;;38.38;22.45;;;;;;;;;;4913382;29;20104;-81
2022/11/07 03:09:03;;;;;;;36.47;19.05;;;;;;;;;;4911801;29;20074;-80
2022/11/07 03:11:30;;;;;;;46.80;23.75;;;;;;;;;;4896568;29;20042;-80
2022/11/07 03:13:55;;;;;;;40.40;21.70;;;;;;;;;;4896579;29;20095;-80
2022/11/07 03:16:21;;;;;;;37.78;18.90;;;;;;;;;;4917004;29;20044;-81
2022/11/07 03:18:47;;;;;;;33.58;17.42;;;;;;;;;;4924789;29;20040;-80
2022/11/07 03:21:13;;;;;;;41.50;22.73;;;;;;;;;;4921056;29;20036;-81
2022/11/07 03:23:39;;;;;;;39.42;19.92;;;;;;;;;;4920348;29;20044;-82
2022/11/07 03:26:05;;;;;;;47.05;21.60;;;;;;;;;;4919866;29;20134;-79
2022/11/07 03:28:31;;;;;;;37.17;18.65;;;;;;;;;;4927467;29;20044;-80
2022/11/07 03:31:00;;;;;;;41.97;20.52;;;;;;;;;;4931967;29;20040;-78
2022/11/07 03:33:27;;;;;;;28.83;16.33;;;;;;;;;;4933193;29;20440;-78
2022/11/07 03:35:53;;;;;;;35.83;16.80;;;;;;;;;;4927936;29;20043;-77
2022/11/07 03:38:19;;;;;;;31.38;15.20;;;;;;;;;;4913424;29;20064;-77
2022/11/07 03:40:45;;;;;;;39.67;19.83;;;;;;;;;;4912391;29;20031;-78
2022/11/07 03:43:11;;;;;;;48.35;21.50;;;;;;;;;;4896294;29;20052;-77
2022/11/07 03:45:37;;;;;;;37.00;19.73;;;;;;;;;;4910083;29;20521;-79
2022/11/07 03:48:02;;;;;;;32.33;15.93;;;;;;;;;;4896073;29;20068;-78
2022/11/07 03:50:28;;;;;;;44.17;19.58;;;;;;;;;;4908786;29;20039;-80
2022/11/07 03:52:54;;;;;;;33.45;16.95;;;;;;;;;;4904342;29;20135;-81
2022/11/07 03:55:20;;;;;;;41.33;20.02;;;;;;;;;;4911322;29;20139;-79
2022/11/07 03:57:46;;;;;;;36.58;17.05;;;;;;;;;;4902862;29;20072;-79
2022/11/07 04:00:12;;;;;;;26.58;14.85;;;;;;;;;;4912986;29;20036;-80
2022/11/07 04:02:38;;;;;;;29.75;16.20;;;;;;;;;;4910828;29;20580;-79
2022/11/07 04:05:04;;;;;;;32.38;18.40;;;;;;;;;;4914498;29;20052;-80
2022/11/07 04:07:30;;;;;;;28.25;13.43;;;;;;;;;;4900684;29;20485;-80
2022/11/07 04:09:56;;;;;;;36.20;19.48;;;;;;;;;;4916834;29;20044;-80
2022/11/07 04:17:51;;;;;;;20.90;12.55;;;;;;;;;;4907417;29;20119;-81
2022/11/07 04:20:17;;;;;;;24.23;14.02;;;;;;;;;;4921495;29;20131;-80
2022/11/07 04:22:44;;;;;;;26.02;12.60;;;;;;;;;;4904629;29;20506;-81
2022/11/07 04:25:10;;;;;;;13.18;10.05;;;;;;;;;;4919095;29;20040;-81
2022/11/07 04:27:42;;;;;;;29.73;16.48;;;;;;;;;;4918070;29;20040;-79
2022/11/07 04:30:26;;;;;;;7.25;5.93;;;;;;;;;;4905109;29;20036;-78
2022/11/07 04:32:53;;;;;;;30.60;18.67;;;;;;;;;;4915805;29;20047;-77
2022/11/07 04:35:19;;;;;;;30.40;12.98;;;;;;;;;;4916674;29;20048;-78
2022/11/07 04:37:45;;;;;;;17.52;11.27;;;;;;;;;;4915035;29;20051;-76
2022/11/07 04:40:11;;;;;;;18.33;13.10;;;;;;;;;;4918388;29;20040;-78
2022/11/07 04:42:37;;;;;;;25.67;14.02;;;;;;;;;;4931824;29;20123;-76
2022/11/07 04:45:03;;;;;;;16.02;9.30;;;;;;;;;;4915693;29;20122;-77
2022/11/07 04:47:29;;;;;;;19.15;12.55;;;;;;;;;;4900757;29;20036;-78
2022/11/07 04:49:55;;;;;;;13.18;9.07;;;;;;;;;;4919176;29;20107;-77
2022/11/07 04:52:21;;;;;;;20.17;13.15;;;;;;;;;;4904117;29;20531;-77
2022/11/07 04:54:47;;;;;;;20.05;13.98;;;;;;;;;;4921504;29;20575;-77
2022/11/07 04:57:14;;;;;;;17.13;9.90;;;;;;;;;;4925210;29;20033;-75
2022/11/07 04:59:40;;;;;;;21.73;14.68;;;;;;;;;;4924668;29;20040;-75
2022/11/07 05:02:12;;;;;;;24.50;13.93;;;;;;;;;;4910048;29;20056;-75
2022/11/07 05:04:38;;;;;;;10.77;9.40;;;;;;;;;;4901922;29;20060;-74
2022/11/07 05:07:05;;;;;;;14.07;10.20;;;;;;;;;;4928389;29;20070;-75
2022/11/07 05:09:31;;;;;;;23.30;15.90;;;;;;;;;;4929058;29;20122;-75
2022/11/07 05:11:57;;;;;;;12.60;10.93;;;;;;;;;;4926185;29;20038;-73
2022/11/07 05:14:23;;;;;;;16.60;12.02;;;;;;;;;;4910744;29;20044;-74
2022/11/07 05:16:49;;;;;;;19.48;11.90;;;;;;;;;;4918322;29;20042;-74
2022/11/07 05:19:16;;;;;;;11.77;9.75;;;;;;;;;;4916926;29;20040;-73
2022/11/07 05:21:44;;;;;;;14.40;9.77;;;;;;;;;;4916214;29;20040;-73
2022/11/07 05:24:10;;;;;;;17.30;11.07;;;;;;;;;;4915748;29;20055;-74
2022/11/07 05:26:36;;;;;;;19.25;13.00;;;;;;;;;;4916683;29;20046;-75
2022/11/07 05:29:03;;;;;;;12.77;10.65;;;;;;;;;;4913730;29;20044;-74
2022/11/07 05:31:29;;;;;;;19.17;13.95;;;;;;;;;;4900027;29;20143;-75
2022/11/07 05:33:55;;;;;;;20.63;13.02;;;;;;;;;;4924631;29;20048;-73
2022/11/07 05:36:21;;;;;;;15.60;11.40;;;;;;;;;;4913979;29;20051;-74
2022/11/07 05:38:48;;;;;;;18.77;12.40;;;;;;;;;;4912567;29;20127;-74
2022/11/07 05:41:14;;;;;;;18.20;11.75;;;;;;;;;;4913948;29;20048;-76
2022/11/07 05:43:40;;;;;;;17.08;10.30;;;;;;;;;;4913361;29;20147;-74
2022/11/07 05:46:06;;;;;;;16.15;11.60;;;;;;;;;;4927627;29;20124;-74
2022/11/07 05:48:32;;;;;;;17.90;11.52;;;;;;;;;;4914929;29;20043;-75
2022/11/07 05:50:57;;;;;;;18.40;12.93;;;;;;;;;;4913021;29;20036;-76
2022/11/07 05:53:24;;;;;;;18.02;12.63;;;;;;;;;;4913537;29;20043;-76
2022/11/07 05:55:50;;;;;;;16.30;10.48;;;;;;;;;;4913152;29;20075;-75
2022/11/07 05:58:16;;;;;;;17.15;11.13;;;;;;;;;;4913450;29;20043;-73
2022/11/07 06:00:42;;;;;;;19.27;11.27;;;;;;;;;;4912878;29;20040;-73
2022/11/07 06:03:08;;;;;;;19.02;13.27;;;;;;;;;;4912489;29;20512;-74
2022/11/07 06:05:35;;;;;;;18.35;11.25;;;;;;;;;;4911613;29;20040;-74
2022/11/07 06:08:01;;;;;;;20.50;13.63;;;;;;;;;;4912622;29;20036;-75
2022/11/07 06:10:27;;;;;;;21.48;13.52;;;;;;;;;;4907912;29;20041;-74
2022/11/07 06:13:00;;;;;;;16.15;11.35;;;;;;;;;;4912692;29;20117;-75
2022/11/07 06:15:26;;;;;;;17.85;12.52;;;;;;;;;;4912863;29;20054;-75
2022/11/07 06:17:52;;;;;;;15.32;10.82;;;;;;;;;;4896187;29;20027;-75
2022/11/07 06:20:18;;;;;;;19.38;12.73;;;;;;;;;;4912660;29;20044;-75
2022/11/07 06:22:43;;;;;;;18.33;12.43;;;;;;;;;;4912729;29;20048;-73
2022/11/07 06:25:09;;;;;;;25.35;13.88;;;;;;;;;;4912408;29;20043;-75
2022/11/07 06:27:35;;;;;;;17.75;13.02;;;;;;;;;;4912717;29;20417;-75
2022/11/07 06:30:01;;;;;;;18.45;11.82;;;;;;;;;;4912864;29;20036;-75
2022/11/07 06:32:27;;;;;;;19.48;12.73;;;;;;;;;;4917449;29;20125;-75
2022/11/07 06:34:53;;;;;;;24.38;14.32;;;;;;;;;;4916650;29;20060;-74
2022/11/07 06:37:19;;;;;;;21.48;12.60;;;;;;;;;;4916226;29;20095;-74
2022/11/07 06:39:45;;;;;;;6.80;6.00;;;;;;;;;;4914554;29;20036;-73
2022/11/07 06:42:11;;;;;;;17.63;12.65;;;;;;;;;;4913807;29;20103;-74
2022/11/07 06:44:36;;;;;;;13.90;10.13;;;;;;;;;;4914445;29;20043;-74
2022/11/07 06:47:02;;;;;;;20.83;13.85;;;;;;;;;;4915555;29;20039;-75
2022/11/07 06:49:28;;;;;;;32.15;16.30;;;;;;;;;;4915931;29;20320;-74
2022/11/07 06:51:54;;;;;;;13.23;7.18;;;;;;;;;;4920361;29;20087;-74
2022/11/07 06:54:20;;;;;;;20.23;13.25;;;;;;;;;;4919522;29;20571;-74
2022/11/07 06:56:46;;;;;;;12.43;8.90;;;;;;;;;;4912331;29;20050;-74
2022/11/07 06:59:12;;;;;;;26.83;13.65;;;;;;;;;;4911724;29;20044;-74
2022/11/07 07:01:38;;;;;;;24.70;15.45;;;;;;;;;;4908059;29;20043;-73
2022/11/07 07:04:04;;;;;;;23.20;14.75;;;;;;;;;;4911692;29;20409;-73
2022/11/07 07:06:30;;;;;;;21.80;14.50;;;;;;;;;;4910495;29;20097;-74
2022/11/07 07:08:56;;;;;;;20.27;11.10;;;;;;;;;;4911639;29;20069;-74
2022/11/07 07:11:22;;;;;;;30.75;18.33;;;;;;;;;;4910665;29;20042;-74
2022/11/07 07:13:48;;;;;;;31.25;17.10;;;;;;;;;;4910769;29;20040;-75
2022/11/07 07:16:14;;;;;;;25.67;14.80;;;;;;;;;;4911447;29;20091;-74
2022/11/07 07:18:40;;;;;;;26.50;15.73;;;;;;;;;;4911323;29;20127;-74
2022/11/07 07:21:06;;;;;;;26.17;14.90;;;;;;;;;;4914749;29;20066;-74
2022/11/07 07:23:33;;;;;;;28.60;16.40;;;;;;;;;;4920193;29;20135;-74
2022/11/07 07:26:00;;;;;;;22.90;14.23;;;;;;;;;;4917729;29;20040;-72
2022/11/07 07:28:26;;;;;;;25.08;15.30;;;;;;;;;;4899105;29;20130;-73
2022/11/07 07:30:51;;;;;;;19.02;12.20;;;;;;;;;;4920684;29;20072;-74
2022/11/07 07:33:17;;;;;;;21.10;12.48;;;;;;;;;;4910142;29;20035;-72
2022/11/07 07:35:43;;;;;;;14.60;9.80;;;;;;;;;;4906176;29;20078;-73
2022/11/07 07:38:10;;;;;;;16.15;10.20;;;;;;;;;;4899819;29;20135;-74
2022/11/07 07:40:35;;;;;;;17.40;11.60;;;;;;;;;;4868638;29;20433;-72
2022/11/07 07:43:01;;;;;;;19.65;12.93;;;;;;;;;;4900810;29;20033;-73
2022/11/07 07:45:27;;;;;;;22.20;12.80;;;;;;;;;;4898077;29;20041;-74
2022/11/07 07:47:58;;;;;;;13.65;9.68;;;;;;;;;;4898703;29;20525;-73
2022/11/07 07:50:24;;;;;;;;;;;;;;;;;;4881122;29;20040;-74
2022/11/07 07:52:54;;;;;;;12.00;8.18;;;;;;;;;;4898497;29;19941;-73
2022/11/07 07:55:20;;;;;;;24.15;12.63;;;;;;;;;;4897302;29;20064;-74
2022/11/07 07:57:45;;;;;;;14.57;9.45;;;;;;;;;;4885203;29;20088;-74
2022/11/07 08:00:12;;;;;;;23.80;13.23;;;;;;;;;;4899255;29;20039;-73
2022/11/07 08:02:37;;;;;;;21.13;12.38;;;;;;;;;;4897439;29;20033;-74
2022/11/07 08:05:03;;;;;;;28.35;16.10;;;;;;;;;;4874537;29;20032;-74
2022/11/07 08:07:29;;;;;;;19.95;11.82;;;;;;;;;;4899864;29;20128;-74
2022/11/07 08:09:55;;;;;;;27.80;15.18;;;;;;;;;;4896659;29;20029;-74
2022/11/07 08:12:21;;;;;;;20.98;12.95;;;;;;;;;;4897738;29;20503;-75
2022/11/07 08:14:47;;;;;;;20.52;12.95;;;;;;;;;;4902627;29;20036;-75
2022/11/07 08:17:13;;;;;;;24.20;14.85;;;;;;;;;;4906909;29;20170;-73
2022/11/07 08:19:38;;;;;;;21.60;13.00;;;;;;;;;;4906577;29;20127;-74
2022/11/07 08:22:05;;;;;;;23.60;13.15;;;;;;;;;;4908407;29;20096;-73
2022/11/07 08:24:31;;;;;;;15.02;9.10;;;;;;;;;;4904182;29;20078;-75
2022/11/07 08:26:56;;;;;;;14.38;10.07;;;;;;;;;;4906852;29;20068;-74
2022/11/07 08:29:22;;;;;;;26.23;13.77;;;;;;;;;;4903084;29;20032;-74
2022/11/07 08:31:49;;;;;;;26.50;15.70;;;;;;;;;;4891378;29;20413;-74
2022/11/07 08:34:16;;;;;;;26.45;16.73;;;;;;;;;;4902070;29;20526;-73
2022/11/07 08:36:42;;;;;;;28.67;15.52;;;;;;;;;;4900261;29;20450;-79
2022/11/07 08:39:08;;;;;;;25.67;14.18;;;;;;;;;;4894257;29;20036;-74
2022/11/07 08:41:34;;;;;;;28.38;15.05;;;;;;;;;;4905577;29;20047;-75
2022/11/07 08:44:00;;;;;;;19.48;12.57;;;;;;;;;;4908043;29;20059;-78
2022/11/07 08:46:26;;;;;;;23.33;13.15;;;;;;;;;;4895081;29;20040;-73
2022/11/07 08:48:52;;;;;;;28.55;15.77;;;;;;;;;;4902274;29;20123;-73
2022/11/07 08:51:18;;;;;;;30.38;16.17;;;;;;;;;;4904927;29;20043;-73
2022/11/07 08:53:44;;;;;;;14.15;10.20;;;;;;;;;;4901835;29;20036;-73
2022/11/07 08:56:10;;;;;;;22.02;13.40;;;;;;;;;;4900112;29;20068;-73
2022/11/07 08:58:36;;;;;;;29.58;15.93;;;;;;;;;;4901935;29;20073;-72
2022/11/07 09:01:06;;;;;;;17.60;10.82;;;;;;;;;;4914603;29;20032;-73
2022/11/07 09:03:33;;;;;;;23.30;11.85;;;;;;;;;;4903254;29;20424;-73
2022/11/07 09:06:18;;;;;;;20.15;12.40;;;;;;;;;;4901134;29;20091;-74
2022/11/07 09:08:44;;;;;;;11.65;6.88;;;;;;;;;;4900431;29;20041;-73
2022/11/07 09:11:11;;;;;;;9.38;7.97;;;;;;;;;;4900696;29;20032;-73
2022/11/07 09:13:36;;;;;;;16.52;9.95;;;;;;;;;;4900153;29;20628;-73
2022/11/07 09:16:03;;;;;;;17.77;10.75;;;;;;;;;;4899871;29;20031;-74
2022/11/07 09:18:29;;;;;;;12.88;10.82;;;;;;;;;;4900086;29;20095;-73
2022/11/07 09:20:56;;;;;;;9.55;8.63;;;;;;;;;;4901353;29;20437;-73
2022/11/07 09:23:22;;;;;;;11.98;8.90;;;;;;;;;;4898856;29;20185;-74
2022/11/07 09:25:48;;;;;;;13.75;10.80;;;;;;;;;;4894196;29;20029;-74
2022/11/07 09:28:14;;;;;;;13.68;10.13;;;;;;;;;;4901633;29;20107;-73
2022/11/07 09:30:39;;;;;;;12.45;9.00;;;;;;;;;;4900729;29;20036;-73
2022/11/07 09:33:06;;;;;;;11.10;8.77;;;;;;;;;;4899291;29;20032;-74
2022/11/07 09:35:32;;;;;;;16.58;12.05;;;;;;;;;;4914782;29;20041;-73
2022/11/07 09:37:57;;;;;;;7.13;6.45;;;;;;;;;;4899529;29;20774;-74
2022/11/07 09:40:44;;;;;;;16.98;10.65;;;;;;;;;;4905216;29;20044;-74
2022/11/07 09:43:29;;;;;;;17.75;10.13;;;;;;;;;;4899976;29;20668;-74
2022/11/07 09:46:14;;;;;;;16.17;11.85;;;;;;;;;;4900674;29;20047;-73
2022/11/07 09:49:03;;;;;;;16.88;11.10;;;;;;;;;;4915364;29;20120;-73
2022/11/07 09:51:33;;;;;;;8.23;6.20;;;;;;;;;;4898551;29;20044;-73
2022/11/07 09:54:02;;;;;;;12.63;9.88;;;;;;;;;;4895054;29;20079;-74
2022/11/07 09:56:30;;;;;;;20.15;16.02;;;;;;;;;;4904700;29;20088;-74
2022/11/07 09:58:55;;;;;;;22.85;13.65;;;;;;;;;;4882441;29;20068;-74
2022/11/07 10:01:21;;;;;;;22.85;14.32;;;;;;;;;;4899657;29;20114;-74
2022/11/07 10:03:47;;;;;;;18.88;11.73;;;;;;;;;;4899413;29;20402;-74
2022/11/07 10:06:22;;;;;;;14.27;8.75;;;;;;;;;;4902635;29;20505;-74
2022/11/07 10:09:00;;;;;;;18.88;12.55;;;;;;;;;;4902369;29;20032;-74
2022/11/07 10:11:28;;;;;;;8.38;6.13;;;;;;;;;;4898715;29;20052;-73
2022/11/07 10:14:03;;;;;;;17.73;11.23;;;;;;;;;;4901149;29;20032;-73
2022/11/07 10:16:36;;;;;;;20.60;13.73;;;;;;;;;;4898463;29;20047;-73
2022/11/07 10:19:08;;;;;;;20.77;13.32;;;;;;;;;;4902993;29;20044;-73
2022/11/07 10:21:34;;;;;;;20.85;11.40;;;;;;;;;;4902203;29;20048;-74
2022/11/07 10:24:08;;;;;;;22.02;14.10;;;;;;;;;;4903441;29;20051;-74
2022/11/07 10:26:34;;;;;;;19.17;11.77;;;;;;;;;;4884337;29;20676;-74
2022/11/07 10:29:00;;;;;;;15.18;10.18;;;;;;;;;;4899169;29;20037;-73
2022/11/07 10:31:27;;;;;;;16.27;11.30;;;;;;;;;;4899064;29;20043;-74
2022/11/07 10:33:54;;;;;;;10.07;7.82;;;;;;;;;;4897543;29;20040;-73
2022/11/07 10:36:21;;;;;;;22.23;12.98;;;;;;;;;;4900104;29;20566;-72
2022/11/07 10:38:47;;;;;;;24.40;14.30;;;;;;;;;;4898205;29;20064;-72
2022/11/07 10:41:17;;;;;;;24.02;14.43;;;;;;;;;;4911433;29;20068;-72
2022/11/07 10:43:44;;;;;;;24.95;13.98;;;;;;;;;;4901665;29;20136;-72
2022/11/07 10:46:18;;;;;;;24.27;15.40;;;;;;;;;;4897159;29;20093;-73
2022/11/07 10:48:53;;;;;;;7.13;6.43;;;;;;;;;;4900226;29;20493;-73
2022/11/07 10:51:19;;;;;;;23.02;13.73;;;;;;;;;;4902040;29;20050;-72
2022/11/07 10:53:45;;;;;;;21.33;13.43;;;;;;;;;;4886560;29;20036;-73
2022/11/07 10:56:13;;;;;;;25.15;13.82;;;;;;;;;;4913609;29;20114;-73
2022/11/07 10:58:42;;;;;;;24.65;16.05;;;;;;;;;;4899757;29;20032;-72
2022/11/07 11:01:09;;;;;;;27.17;15.18;;;;;;;;;;4897328;29;20074;-72
2022/11/07 11:03:38;;;;;;;23.00;14.30;;;;;;;;;;4894859;29;20536;-72
2022/11/07 11:06:07;;;;;;;15.00;9.98;;;;;;;;;;4902608;29;20048;-72
2022/11/07 11:08:34;;;;;;;26.80;13.48;;;;;;;;;;4904996;29;20063;-71
2022/11/07 11:11:00;;;;;;;25.05;16.27;;;;;;;;;;4900481;29;20043;-72
2022/11/07 11:13:29;;;;;;;16.48;11.30;;;;;;;;;;4912858;29;20036;-73
2022/11/07 11:15:55;;;;;;;20.38;12.68;;;;;;;;;;4899299;29;20137;-72
2022/11/07 11:18:21;;;;;;;18.30;11.93;;;;;;;;;;4897708;29;20081;-72
2022/11/07 11:20:57;;;;;;;20.35;13.18;;;;;;;;;;4897486;29;20088;-72
2022/11/07 11:23:24;;;;;;;24.60;13.05;;;;;;;;;;4899185;29;20067;-72
2022/11/07 11:25:50;;;;;;;32.08;17.25;;;;;;;;;;4893635;29;20055;-72
2022/11/07 11:28:21;;;;;;;22.08;14.23;;;;;;;;;;4899408;29;20037;-72
2022/11/07 11:30:47;;;;;;;30.20;17.33;;;;;;;;;;4897323;29;20036;-74
2022/11/07 11:33:19;;;;;;;18.02;11.82;;;;;;;;;;4881212;29;20871;-72
2022/11/07 11:35:52;;;;;;;32.08;16.50;;;;;;;;;;4898134;29;20029;-72
2022/11/07 11:38:24;;;;;;;22.15;12.80;;;;;;;;;;4901176;29;20592;-72
2022/11/07 11:40:54;;;;;;;24.08;11.98;;;;;;;;;;4900616;29;20048;-72
2022/11/07 11:43:29;;;;;;;21.48;13.00;;;;;;;;;;4900613;29;20048;-72
2022/11/07 11:46:10;;;;;;;15.68;10.20;;;;;;;;;;4917448;29;20041;-72
2022/11/07 11:48:40;;;;;;;15.80;8.85;;;;;;;;;;4903622;29;20415;-72
2022/11/07 11:51:26;;;;;;;30.98;16.90;;;;;;;;;;4904855;29;20374;-72
2022/11/07 11:53:52;;;;;;;26.88;14.38;;;;;;;;;;4889271;29;20136;-72
2022/11/07 11:56:24;;;;;;;32.53;16.23;;;;;;;;;;4899407;29;20042;-72
2022/11/07 11:58:53;;;;;;;23.13;13.20;;;;;;;;;;4909741;29;20040;-72
2022/11/07 12:01:22;;;;;;;28.83;16.17;;;;;;;;;;4900402;29;20032;-72
2022/11/07 12:04:04;;;;;;;43.58;21.25;;;;;;;;;;4909533;29;20055;-72
2022/11/07 12:06:35;;;;;;;33.42;17.27;;;;;;;;;;4904569;29;20040;-72
2022/11/07 12:09:10;;;;;;;36.85;16.05;;;;;;;;;;4891806;29;20062;-72
2022/11/07 12:11:42;;;;;;;29.55;15.70;;;;;;;;;;4905281;29;20040;-72
2022/11/07 12:14:27;;;;;;;32.38;16.92;;;;;;;;;;4904192;29;20472;-73
2022/11/07 12:17:02;;;;;;;35.28;17.13;;;;;;;;;;4901518;29;20089;-73
2022/11/07 12:19:37;;;;;;;33.05;14.73;;;;;;;;;;4902147;29;20036;-72
2022/11/07 12:22:12;;;;;;;36.50;20.15;;;;;;;;;;4917934;29;20068;-72
2022/11/07 12:24:56;;;;;;;36.50;17.20;;;;;;;;;;4904347;29;20063;-72
2022/11/07 12:27:45;;;;;;;25.20;15.75;;;;;;;;;;4905398;29;20072;-73
2022/11/07 12:30:14;;;;;;;34.22;18.60;;;;;;;;;;4896827;29;20111;-72
2022/11/07 12:32:49;;;;;;;31.70;14.23;;;;;;;;;;4905951;29;20036;-73
2022/11/07 12:35:36;;;;;;;28.08;15.48;;;;;;;;;;4915483;29;20135;-73
2022/11/07 12:38:17;;;;;;;34.97;18.58;;;;;;;;;;4911018;29;20115;-73
2022/11/07 12:40:43;;;;;;;23.48;13.32;;;;;;;;;;4902743;29;20486;-74
2022/11/07 12:43:25;;;;;;;27.20;14.10;;;;;;;;;;4900298;29;20066;-73
2022/11/07 12:46:09;;;;;;;25.38;14.75;;;;;;;;;;4901173;29;20040;-74
2022/11/07 12:48:41;;;;;;;31.00;15.98;;;;;;;;;;4905509;29;20517;-74
2022/11/07 12:51:14;;;;;;;27.55;14.70;;;;;;;;;;4901189;29;20072;-74
2022/11/07 12:53:50;;;;;;;22.80;12.73;;;;;;;;;;4909675;29;20036;-74
2022/11/07 12:56:18;;;;;;;26.50;15.38;;;;;;;;;;4914397;29;20029;-74
2022/11/07 12:58:44;;;;;;;20.60;12.82;;;;;;;;;;4911851;29;20052;-74
2022/11/07 13:01:11;;;;;;;24.63;14.43;;;;;;;;;;4914270;29;20036;-73
2022/11/07 13:03:55;;;;;;;29.40;15.75;;;;;;;;;;4909154;29;20077;-74
2022/11/07 13:06:25;;;;;;;35.30;20.48;;;;;;;;;;4905639;29;20037;-72
2022/11/07 13:08:51;;;;;;;13.57;9.15;;;;;;;;;;4921531;29;20028;-72
2022/11/07 13:11:21;;;;;;;23.67;14.00;;;;;;;;;;4907964;29;20519;-72
2022/11/07 13:14:07;;;;;;;17.55;10.30;;;;;;;;;;4904501;29;20043;-72
2022/11/07 13:16:33;;;;;;;32.08;16.63;;;;;;;;;;4901320;29;20040;-73
2022/11/07 13:19:18;;;;;;;31.20;16.05;;;;;;;;;;4900630;29;20032;-72
2022/11/07 13:21:44;;;;;;;19.75;13.52;;;;;;;;;;4902792;29;20036;-73
2022/11/07 13:24:20;;;;;;;35.65;17.38;;;;;;;;;;4900346;29;20045;-74
2022/11/07 13:26:46;;;;;;;31.27;16.95;;;;;;;;;;4898274;29;20033;-73
2022/11/07 13:29:22;;;;;;;37.58;19.02;;;;;;;;;;4901220;29;20051;-73
2022/11/07 13:31:52;;;;;;;41.05;18.02;;;;;;;;;;4900798;29;20193;-73
2022/11/07 13:34:17;;;;;;;42.70;19.95;;;;;;;;;;4900282;29;20494;-78
2022/11/07 13:36:44;;;;;;;39.03;18.38;;;;;;;;;;4904722;29;20505;-72
2022/11/07 13:39:10;;;;;;;39.15;18.27;;;;;;;;;;4902204;29;20039;-73
2022/11/07 13:41:36;;;;;;;40.85;19.40;;;;;;;;;;4899853;29;20039;-73
2022/11/07 13:44:02;;;;;;;42.75;19.58;;;;;;;;;;4894641;29;20083;-74
2022/11/07 13:46:33;;;;;;;26.73;13.23;;;;;;;;;;4901412;29;20135;-73
2022/11/07 13:49:00;;;;;;;47.38;19.23;;;;;;;;;;4901553;29;20051;-72
2022/11/07 13:51:33;;;;;;;42.90;19.38;;;;;;;;;;4900268;29;20119;-73
2022/11/07 13:54:08;;;;;;;47.28;20.48;;;;;;;;;;4899320;29;20056;-72
2022/11/07 13:56:39;;;;;;;48.00;21.17;;;;;;;;;;4902275;29;20706;-73
2022/11/07 13:59:05;;;;;;;;;;;;;;;;;;4902500;29;20067;-72
2022/11/07 14:01:42;;;;;;;41.50;19.55;;;;;;;;;;4899614;29;19915;-72
2022/11/07 14:04:15;;;;;;;31.08;14.50;;;;;;;;;;4902643;29;20044;-72
2022/11/07 14:06:41;;;;;;;42.28;18.15;;;;;;;;;;4900886;29;20055;-72
2022/11/07 14:09:07;;;;;;;48.45;20.48;;;;;;;;;;4903739;29;20040;-72
2022/11/07 14:11:33;;;;;;;37.97;16.98;;;;;;;;;;4899163;29;20036;-72
2022/11/07 14:13:59;;;;;;;48.78;22.08;;;;;;;;;;4899640;29;20055;-72
2022/11/07 14:16:26;;;;;;;33.40;15.80;;;;;;;;;;4898212;29;20024;-72
2022/11/07 14:18:58;;;;;;;38.17;16.58;;;;;;;;;;4898438;29;20067;-73
2022/11/07 14:21:25;;;;;;;34.38;16.80;;;;;;;;;;4901661;29;20054;-72
2022/11/07 14:23:51;;;;;;;40.50;18.85;;;;;;;;;;4902655;29;20107;-72
2022/11/07 14:26:29;;;;;;;18.15;10.15;;;;;;;;;;4901157;29;20054;-72
2022/11/07 14:28:56;;;;;;;51.13;22.85;;;;;;;;;;4901988;29;20103;-72
2022/11/07 14:31:26;;;;;;;40.60;18.05;;;;;;;;;;4885617;29;20537;-71
2022/11/07 14:33:52;;;;;;;40.63;18.65;;;;;;;;;;4900153;29;20032;-72